sensor_id;sensor_type;location;lat;lon;timestamp;P1;durP1;ratioP1;P2;durP2;ratioP2
78732;SDS011;68056;52.530;5.454;2024-02-15T00:00:51;7.47;;;2.28;;
78732;SDS011;68056;52.530;5.454;2024-02-15T00:03:17;10.55;;;2.22;;
78732;SDS011;68056;52.530;5.454;2024-02-15T00:05:43;7.40;;;2.10;;
78732;SDS011;68056;52.530;5.454;2024-02-15T00:08:09;8.60;;;2.20;;
78732;SDS011;68056;52.530;5.454;2024-02-15T00:10:34;9.30;;;2.35;;
78732;SDS011;68056;52.530;5.454;2024-02-15T00:13:00;4.25;;;2.10;;
78732;SDS011;68056;52.530;5.454;2024-02-15T00:15:25;7.13;;;2.10;;
78732;SDS011;68056;52.530;5.454;2024-02-15T00:17:51;5.47;;;2.80;;
78732;SDS011;68056;52.530;5.454;2024-02-15T00:20:17;6.65;;;1.65;;
78732;SDS011;68056;52.530;5.454;2024-02-15T00:22:42;7.47;;;1.77;;
78732;SDS011;68056;52.530;5.454;2024-02-15T00:25:08;9.93;;;2.65;;
78732;SDS011;68056;52.530;5.454;2024-02-15T00:27:35;7.28;;;2.53;;
78732;SDS011;68056;52.530;5.454;2024-02-15T00:30:02;6.57;;;2.63;;
78732;SDS011;68056;52.530;5.454;2024-02-15T00:32:28;5.13;;;2.58;;
78732;SDS011;68056;52.530;5.454;2024-02-15T00:34:54;8.73;;;2.50;;
78732;SDS011;68056;52.530;5.454;2024-02-15T00:37:20;6.22;;;2.20;;
78732;SDS011;68056;52.530;5.454;2024-02-15T00:39:45;6.53;;;2.47;;
78732;SDS011;68056;52.530;5.454;2024-02-15T00:42:11;8.40;;;3.47;;
78732;SDS011;68056;52.530;5.454;2024-02-15T00:44:37;8.68;;;2.28;;
78732;SDS011;68056;52.530;5.454;2024-02-15T00:47:02;11.43;;;3.22;;
78732;SDS011;68056;52.530;5.454;2024-02-15T00:49:28;7.45;;;2.80;;
78732;SDS011;68056;52.530;5.454;2024-02-15T00:51:54;6.60;;;2.42;;
78732;SDS011;68056;52.530;5.454;2024-02-15T00:54:19;7.80;;;3.55;;
78732;SDS011;68056;52.530;5.454;2024-02-15T00:56:45;11.73;;;3.45;;
78732;SDS011;68056;52.530;5.454;2024-02-15T00:59:10;9.73;;;2.58;;
78732;SDS011;68056;52.530;5.454;2024-02-15T01:01:36;8.68;;;2.70;;
78732;SDS011;68056;52.530;5.454;2024-02-15T01:04:03;11.48;;;3.58;;
78732;SDS011;68056;52.530;5.454;2024-02-15T01:06:29;12.55;;;3.08;;
78732;SDS011;68056;52.530;5.454;2024-02-15T01:08:54;7.45;;;3.30;;
78732;SDS011;68056;52.530;5.454;2024-02-15T01:11:20;6.25;;;3.05;;
78732;SDS011;68056;52.530;5.454;2024-02-15T01:13:45;8.75;;;3.58;;
78732;SDS011;68056;52.530;5.454;2024-02-15T01:16:11;9.13;;;3.60;;
78732;SDS011;68056;52.530;5.454;2024-02-15T01:18:37;8.82;;;3.10;;
78732;SDS011;68056;52.530;5.454;2024-02-15T01:21:03;9.27;;;3.95;;
78732;SDS011;68056;52.530;5.454;2024-02-15T01:23:29;10.25;;;3.45;;
78732;SDS011;68056;52.530;5.454;2024-02-15T01:25:54;5.82;;;2.35;;
78732;SDS011;68056;52.530;5.454;2024-02-15T01:28:20;8.52;;;2.90;;
78732;SDS011;68056;52.530;5.454;2024-02-15T01:30:47;9.77;;;3.00;;
78732;SDS011;68056;52.530;5.454;2024-02-15T01:33:12;9.82;;;2.88;;
78732;SDS011;68056;52.530;5.454;2024-02-15T01:35:38;6.60;;;3.00;;
78732;SDS011;68056;52.530;5.454;2024-02-15T01:38:05;7.53;;;2.60;;
78732;SDS011;68056;52.530;5.454;2024-02-15T01:40:30;8.18;;;3.13;;
78732;SDS011;68056;52.530;5.454;2024-02-15T01:42:56;7.68;;;2.97;;
78732;SDS011;68056;52.530;5.454;2024-02-15T01:45:23;7.60;;;3.05;;
78732;SDS011;68056;52.530;5.454;2024-02-15T01:47:50;8.10;;;3.63;;
78732;SDS011;68056;52.530;5.454;2024-02-15T01:50:17;6.95;;;3.72;;
78732;SDS011;68056;52.530;5.454;2024-02-15T01:52:43;10.85;;;4.22;;
78732;SDS011;68056;52.530;5.454;2024-02-15T01:55:12;9.15;;;3.72;;
78732;SDS011;68056;52.530;5.454;2024-02-15T02:00:09;10.55;;;4.70;;
78732;SDS011;68056;52.530;5.454;2024-02-15T02:02:35;5.82;;;3.22;;
78732;SDS011;68056;52.530;5.454;2024-02-15T02:05:04;8.35;;;3.60;;
78732;SDS011;68056;52.530;5.454;2024-02-15T02:07:31;8.48;;;3.67;;
78732;SDS011;68056;52.530;5.454;2024-02-15T02:09:56;6.75;;;3.67;;
78732;SDS011;68056;52.530;5.454;2024-02-15T02:12:22;7.72;;;3.50;;
78732;SDS011;68056;52.530;5.454;2024-02-15T02:14:49;6.20;;;3.42;;
78732;SDS011;68056;52.530;5.454;2024-02-15T02:17:15;7.90;;;3.90;;
78732;SDS011;68056;52.530;5.454;2024-02-15T02:19:41;8.75;;;3.97;;
78732;SDS011;68056;52.530;5.454;2024-02-15T02:22:08;8.30;;;3.53;;
78732;SDS011;68056;52.530;5.454;2024-02-15T02:24:35;11.45;;;4.38;;
78732;SDS011;68056;52.530;5.454;2024-02-15T02:27:08;12.75;;;4.40;;
78732;SDS011;68056;52.530;5.454;2024-02-15T02:32:01;6.70;;;3.78;;
78732;SDS011;68056;52.530;5.454;2024-02-15T02:34:26;9.55;;;4.25;;
78732;SDS011;68056;52.530;5.454;2024-02-15T02:36:52;7.97;;;4.38;;
78732;SDS011;68056;52.530;5.454;2024-02-15T02:39:17;4.88;;;3.53;;
78732;SDS011;68056;52.530;5.454;2024-02-15T02:41:43;7.82;;;4.55;;
78732;SDS011;68056;52.530;5.454;2024-02-15T02:44:08;7.97;;;4.03;;
78732;SDS011;68056;52.530;5.454;2024-02-15T02:46:34;8.05;;;3.97;;
78732;SDS011;68056;52.530;5.454;2024-02-15T02:49:00;8.10;;;4.50;;
78732;SDS011;68056;52.530;5.454;2024-02-15T02:51:26;13.10;;;4.80;;
78732;SDS011;68056;52.530;5.454;2024-02-15T02:53:52;6.55;;;3.95;;
78732;SDS011;68056;52.530;5.454;2024-02-15T02:56:17;8.70;;;4.88;;
78732;SDS011;68056;52.530;5.454;2024-02-15T02:58:43;6.50;;;3.75;;
78732;SDS011;68056;52.530;5.454;2024-02-15T03:01:10;9.13;;;4.70;;
78732;SDS011;68056;52.530;5.454;2024-02-15T03:03:39;10.70;;;4.07;;
78732;SDS011;68056;52.530;5.454;2024-02-15T03:06:07;8.55;;;4.68;;
78732;SDS011;68056;52.530;5.454;2024-02-15T03:08:33;9.02;;;3.70;;
78732;SDS011;68056;52.530;5.454;2024-02-15T03:10:59;8.13;;;3.47;;
78732;SDS011;68056;52.530;5.454;2024-02-15T03:13:24;10.10;;;4.47;;
78732;SDS011;68056;52.530;5.454;2024-02-15T03:15:50;7.20;;;3.90;;
78732;SDS011;68056;52.530;5.454;2024-02-15T03:18:16;8.80;;;4.82;;
78732;SDS011;68056;52.530;5.454;2024-02-15T03:20:42;10.25;;;4.43;;
78732;SDS011;68056;52.530;5.454;2024-02-15T03:23:08;7.07;;;4.05;;
78732;SDS011;68056;52.530;5.454;2024-02-15T03:25:34;8.25;;;4.15;;
78732;SDS011;68056;52.530;5.454;2024-02-15T03:28:00;12.65;;;4.68;;
78732;SDS011;68056;52.530;5.454;2024-02-15T03:30:29;6.78;;;3.75;;
78732;SDS011;68056;52.530;5.454;2024-02-15T03:32:56;7.18;;;3.60;;
78732;SDS011;68056;52.530;5.454;2024-02-15T03:35:26;7.03;;;4.22;;
78732;SDS011;68056;52.530;5.454;2024-02-15T03:37:56;6.13;;;4.10;;
78732;SDS011;68056;52.530;5.454;2024-02-15T03:40:22;12.13;;;5.53;;
78732;SDS011;68056;52.530;5.454;2024-02-15T03:42:51;9.77;;;4.35;;
78732;SDS011;68056;52.530;5.454;2024-02-15T03:45:17;9.75;;;4.63;;
78732;SDS011;68056;52.530;5.454;2024-02-15T03:47:43;12.73;;;5.45;;
78732;SDS011;68056;52.530;5.454;2024-02-15T03:50:09;6.00;;;3.63;;
78732;SDS011;68056;52.530;5.454;2024-02-15T03:52:35;8.23;;;4.47;;
78732;SDS011;68056;52.530;5.454;2024-02-15T03:55:01;10.23;;;5.00;;
78732;SDS011;68056;52.530;5.454;2024-02-15T03:57:27;9.82;;;4.80;;
78732;SDS011;68056;52.530;5.454;2024-02-15T03:59:53;8.05;;;5.03;;
78732;SDS011;68056;52.530;5.454;2024-02-15T04:02:22;10.27;;;5.00;;
78732;SDS011;68056;52.530;5.454;2024-02-15T04:04:49;9.32;;;4.82;;
78732;SDS011;68056;52.530;5.454;2024-02-15T04:07:17;11.40;;;5.13;;
78732;SDS011;68056;52.530;5.454;2024-02-15T04:09:44;8.75;;;5.60;;
78732;SDS011;68056;52.530;5.454;2024-02-15T04:12:13;9.73;;;5.18;;
78732;SDS011;68056;52.530;5.454;2024-02-15T04:14:42;9.00;;;4.45;;
78732;SDS011;68056;52.530;5.454;2024-02-15T04:17:12;9.80;;;6.05;;
78732;SDS011;68056;52.530;5.454;2024-02-15T04:19:46;12.43;;;6.40;;
78732;SDS011;68056;52.530;5.454;2024-02-15T04:22:12;11.10;;;6.20;;
78732;SDS011;68056;52.530;5.454;2024-02-15T04:24:41;8.82;;;5.97;;
78732;SDS011;68056;52.530;5.454;2024-02-15T04:27:10;11.68;;;5.93;;
78732;SDS011;68056;52.530;5.454;2024-02-15T04:29:37;10.20;;;5.55;;
78732;SDS011;68056;52.530;5.454;2024-02-15T04:32:05;12.18;;;5.53;;
78732;SDS011;68056;52.530;5.454;2024-02-15T04:34:35;10.82;;;5.15;;
78732;SDS011;68056;52.530;5.454;2024-02-15T04:37:11;9.27;;;5.43;;
78732;SDS011;68056;52.530;5.454;2024-02-15T04:39:38;8.55;;;4.82;;
78732;SDS011;68056;52.530;5.454;2024-02-15T04:42:04;11.15;;;6.38;;
78732;SDS011;68056;52.530;5.454;2024-02-15T04:44:32;9.30;;;5.30;;
78732;SDS011;68056;52.530;5.454;2024-02-15T04:47:00;11.80;;;5.55;;
78732;SDS011;68056;52.530;5.454;2024-02-15T04:49:27;9.80;;;5.25;;
78732;SDS011;68056;52.530;5.454;2024-02-15T04:51:54;12.05;;;7.28;;
78732;SDS011;68056;52.530;5.454;2024-02-15T04:54:20;12.02;;;5.13;;
78732;SDS011;68056;52.530;5.454;2024-02-15T04:56:46;10.18;;;5.15;;
78732;SDS011;68056;52.530;5.454;2024-02-15T04:59:12;10.73;;;5.72;;
78732;SDS011;68056;52.530;5.454;2024-02-15T05:01:40;10.32;;;5.78;;
78732;SDS011;68056;52.530;5.454;2024-02-15T05:04:09;10.15;;;5.15;;
78732;SDS011;68056;52.530;5.454;2024-02-15T05:06:35;9.80;;;5.07;;
78732;SDS011;68056;52.530;5.454;2024-02-15T05:09:01;11.25;;;6.18;;
78732;SDS011;68056;52.530;5.454;2024-02-15T05:11:32;11.68;;;5.07;;
78732;SDS011;68056;52.530;5.454;2024-02-15T05:14:00;12.65;;;6.88;;
78732;SDS011;68056;52.530;5.454;2024-02-15T05:16:26;7.90;;;4.88;;
78732;SDS011;68056;52.530;5.454;2024-02-15T05:18:51;14.85;;;6.72;;
78732;SDS011;68056;52.530;5.454;2024-02-15T05:21:18;8.55;;;5.40;;
78732;SDS011;68056;52.530;5.454;2024-02-15T05:23:44;7.53;;;5.15;;
78732;SDS011;68056;52.530;5.454;2024-02-15T05:26:11;8.93;;;5.45;;
78732;SDS011;68056;52.530;5.454;2024-02-15T05:28:41;11.95;;;6.68;;
78732;SDS011;68056;52.530;5.454;2024-02-15T05:31:16;10.10;;;6.20;;
78732;SDS011;68056;52.530;5.454;2024-02-15T05:33:44;10.90;;;6.10;;
78732;SDS011;68056;52.530;5.454;2024-02-15T05:36:14;10.77;;;6.38;;
78732;SDS011;68056;52.530;5.454;2024-02-15T05:38:40;9.80;;;6.10;;
78732;SDS011;68056;52.530;5.454;2024-02-15T05:41:06;11.15;;;5.63;;
78732;SDS011;68056;52.530;5.454;2024-02-15T05:43:35;14.07;;;6.68;;
78732;SDS011;68056;52.530;5.454;2024-02-15T05:46:02;11.15;;;6.70;;
78732;SDS011;68056;52.530;5.454;2024-02-15T05:48:28;11.18;;;5.80;;
78732;SDS011;68056;52.530;5.454;2024-02-15T05:50:54;11.55;;;6.30;;
78732;SDS011;68056;52.530;5.454;2024-02-15T05:53:20;14.02;;;6.00;;
78732;SDS011;68056;52.530;5.454;2024-02-15T05:55:46;9.88;;;6.07;;
78732;SDS011;68056;52.530;5.454;2024-02-15T05:58:14;10.95;;;6.70;;
78732;SDS011;68056;52.530;5.454;2024-02-15T06:00:40;9.07;;;5.45;;
78732;SDS011;68056;52.530;5.454;2024-02-15T06:03:06;10.13;;;5.45;;
78732;SDS011;68056;52.530;5.454;2024-02-15T06:05:34;7.72;;;5.28;;
78732;SDS011;68056;52.530;5.454;2024-02-15T06:08:00;9.02;;;6.13;;
78732;SDS011;68056;52.530;5.454;2024-02-15T06:10:25;5.28;;;4.75;;
78732;SDS011;68056;52.530;5.454;2024-02-15T06:12:51;8.80;;;5.15;;
78732;SDS011;68056;52.530;5.454;2024-02-15T06:15:17;6.93;;;4.55;;
78732;SDS011;68056;52.530;5.454;2024-02-15T06:17:43;10.95;;;5.90;;
78732;SDS011;68056;52.530;5.454;2024-02-15T06:20:12;7.78;;;5.50;;
78732;SDS011;68056;52.530;5.454;2024-02-15T06:22:46;6.70;;;4.85;;
78732;SDS011;68056;52.530;5.454;2024-02-15T06:25:12;8.45;;;5.03;;
78732;SDS011;68056;52.530;5.454;2024-02-15T06:27:40;8.23;;;5.43;;
78732;SDS011;68056;52.530;5.454;2024-02-15T06:30:07;9.07;;;5.53;;
78732;SDS011;68056;52.530;5.454;2024-02-15T06:32:52;9.30;;;5.82;;
78732;SDS011;68056;52.530;5.454;2024-02-15T06:35:36;8.73;;;5.75;;
78732;SDS011;68056;52.530;5.454;2024-02-15T06:38:21;8.02;;;5.43;;
78732;SDS011;68056;52.530;5.454;2024-02-15T06:41:06;7.72;;;5.75;;
78732;SDS011;68056;52.530;5.454;2024-02-15T06:43:32;7.25;;;5.07;;
78732;SDS011;68056;52.530;5.454;2024-02-15T06:45:58;9.73;;;5.35;;
78732;SDS011;68056;52.530;5.454;2024-02-15T06:48:23;9.13;;;6.25;;
78732;SDS011;68056;52.530;5.454;2024-02-15T06:50:51;8.13;;;5.63;;
78732;SDS011;68056;52.530;5.454;2024-02-15T06:53:17;7.57;;;5.50;;
78732;SDS011;68056;52.530;5.454;2024-02-15T06:55:45;8.27;;;6.35;;
78732;SDS011;68056;52.530;5.454;2024-02-15T06:58:14;11.45;;;6.60;;
78732;SDS011;68056;52.530;5.454;2024-02-15T07:00:41;10.05;;;6.15;;
78732;SDS011;68056;52.530;5.454;2024-02-15T07:03:07;8.75;;;5.60;;
78732;SDS011;68056;52.530;5.454;2024-02-15T07:05:34;8.82;;;5.90;;
78732;SDS011;68056;52.530;5.454;2024-02-15T07:07:59;8.35;;;5.60;;
78732;SDS011;68056;52.530;5.454;2024-02-15T07:10:26;10.77;;;6.22;;
78732;SDS011;68056;52.530;5.454;2024-02-15T07:12:52;9.73;;;6.43;;
78732;SDS011;68056;52.530;5.454;2024-02-15T07:15:17;10.48;;;7.10;;
78732;SDS011;68056;52.530;5.454;2024-02-15T07:17:43;7.95;;;5.63;;
78732;SDS011;68056;52.530;5.454;2024-02-15T07:20:11;13.48;;;7.13;;
78732;SDS011;68056;52.530;5.454;2024-02-15T07:25:08;10.52;;;6.05;;
78732;SDS011;68056;52.530;5.454;2024-02-15T07:27:35;9.55;;;6.90;;
78732;SDS011;68056;52.530;5.454;2024-02-15T07:30:01;9.45;;;5.82;;
78732;SDS011;68056;52.530;5.454;2024-02-15T07:32:27;11.77;;;7.20;;
78732;SDS011;68056;52.530;5.454;2024-02-15T07:34:52;10.07;;;6.85;;
78732;SDS011;68056;52.530;5.454;2024-02-15T07:37:18;10.45;;;6.75;;
78732;SDS011;68056;52.530;5.454;2024-02-15T07:39:43;10.57;;;6.75;;
78732;SDS011;68056;52.530;5.454;2024-02-15T07:42:09;10.00;;;6.55;;
78732;SDS011;68056;52.530;5.454;2024-02-15T07:44:35;10.88;;;6.30;;
78732;SDS011;68056;52.530;5.454;2024-02-15T07:47:01;10.52;;;6.78;;
78732;SDS011;68056;52.530;5.454;2024-02-15T07:49:27;7.85;;;5.57;;
78732;SDS011;68056;52.530;5.454;2024-02-15T07:51:53;10.55;;;5.70;;
78732;SDS011;68056;52.530;5.454;2024-02-15T07:54:19;8.40;;;5.60;;
78732;SDS011;68056;52.530;5.454;2024-02-15T07:56:48;8.40;;;5.30;;
78732;SDS011;68056;52.530;5.454;2024-02-15T07:59:14;7.72;;;5.88;;
78732;SDS011;68056;52.530;5.454;2024-02-15T08:01:43;7.95;;;6.22;;
78732;SDS011;68056;52.530;5.454;2024-02-15T08:04:12;6.13;;;4.80;;
78732;SDS011;68056;52.530;5.454;2024-02-15T08:06:38;6.07;;;4.75;;
78732;SDS011;68056;52.530;5.454;2024-02-15T08:09:03;6.95;;;4.32;;
78732;SDS011;68056;52.530;5.454;2024-02-15T08:11:32;5.78;;;4.68;;
78732;SDS011;68056;52.530;5.454;2024-02-15T08:13:57;6.25;;;4.68;;
78732;SDS011;68056;52.530;5.454;2024-02-15T08:16:26;5.13;;;3.65;;
78732;SDS011;68056;52.530;5.454;2024-02-15T08:18:55;5.28;;;4.03;;
78732;SDS011;68056;52.530;5.454;2024-02-15T08:21:27;4.70;;;3.90;;
78732;SDS011;68056;52.530;5.454;2024-02-15T08:23:57;5.72;;;3.53;;
78732;SDS011;68056;52.530;5.454;2024-02-15T08:26:23;4.72;;;3.35;;
78732;SDS011;68056;52.530;5.454;2024-02-15T08:28:49;3.80;;;3.00;;
78732;SDS011;68056;52.530;5.454;2024-02-15T08:31:15;4.38;;;2.75;;
78732;SDS011;68056;52.530;5.454;2024-02-15T08:33:41;3.90;;;2.53;;
78732;SDS011;68056;52.530;5.454;2024-02-15T08:36:08;3.35;;;2.60;;
78732;SDS011;68056;52.530;5.454;2024-02-15T08:38:35;4.07;;;2.47;;
78732;SDS011;68056;52.530;5.454;2024-02-15T08:41:02;3.30;;;2.15;;
78732;SDS011;68056;52.530;5.454;2024-02-15T08:43:29;3.63;;;1.80;;
78732;SDS011;68056;52.530;5.454;2024-02-15T08:45:57;4.10;;;2.22;;
78732;SDS011;68056;52.530;5.454;2024-02-15T08:48:23;4.15;;;2.17;;
78732;SDS011;68056;52.530;5.454;2024-02-15T08:50:49;2.80;;;2.17;;
78732;SDS011;68056;52.530;5.454;2024-02-15T08:53:15;5.45;;;2.70;;
78732;SDS011;68056;52.530;5.454;2024-02-15T08:55:41;2.83;;;2.30;;
78732;SDS011;68056;52.530;5.454;2024-02-15T08:58:06;2.88;;;2.25;;
78732;SDS011;68056;52.530;5.454;2024-02-15T09:00:34;2.95;;;1.95;;
78732;SDS011;68056;52.530;5.454;2024-02-15T09:03:01;3.15;;;2.22;;
78732;SDS011;68056;52.530;5.454;2024-02-15T09:05:27;2.38;;;1.80;;
78732;SDS011;68056;52.530;5.454;2024-02-15T09:07:53;2.20;;;1.98;;
78732;SDS011;68056;52.530;5.454;2024-02-15T09:10:19;2.22;;;2.03;;
78732;SDS011;68056;52.530;5.454;2024-02-15T09:12:47;2.85;;;2.50;;
78732;SDS011;68056;52.530;5.454;2024-02-15T09:15:14;3.00;;;2.15;;
78732;SDS011;68056;52.530;5.454;2024-02-15T09:17:40;2.42;;;2.22;;
78732;SDS011;68056;52.530;5.454;2024-02-15T09:20:11;1.83;;;1.52;;
78732;SDS011;68056;52.530;5.454;2024-02-15T09:25:11;2.70;;;1.95;;
78732;SDS011;68056;52.530;5.454;2024-02-15T09:27:38;2.85;;;1.90;;
78732;SDS011;68056;52.530;5.454;2024-02-15T09:30:04;2.42;;;1.75;;
78732;SDS011;68056;52.530;5.454;2024-02-15T09:32:38;2.58;;;2.10;;
78732;SDS011;68056;52.530;5.454;2024-02-15T09:35:04;2.63;;;1.92;;
78732;SDS011;68056;52.530;5.454;2024-02-15T09:37:37;3.80;;;1.95;;
78732;SDS011;68056;52.530;5.454;2024-02-15T09:40:09;2.17;;;1.80;;
78732;SDS011;68056;52.530;5.454;2024-02-15T09:42:37;2.47;;;1.88;;
78732;SDS011;68056;52.530;5.454;2024-02-15T09:45:05;2.10;;;1.83;;
78732;SDS011;68056;52.530;5.454;2024-02-15T09:47:33;3.35;;;2.20;;
78732;SDS011;68056;52.530;5.454;2024-02-15T09:50:01;3.38;;;1.92;;
78732;SDS011;68056;52.530;5.454;2024-02-15T09:52:31;2.53;;;1.92;;
78732;SDS011;68056;52.530;5.454;2024-02-15T09:55:00;4.20;;;2.15;;
78732;SDS011;68056;52.530;5.454;2024-02-15T09:57:28;2.85;;;2.00;;
78732;SDS011;68056;52.530;5.454;2024-02-15T09:59:58;2.85;;;1.90;;
78732;SDS011;68056;52.530;5.454;2024-02-15T10:02:25;2.45;;;2.03;;
78732;SDS011;68056;52.530;5.454;2024-02-15T10:04:52;2.15;;;1.80;;
78732;SDS011;68056;52.530;5.454;2024-02-15T10:07:21;2.00;;;1.80;;
78732;SDS011;68056;52.530;5.454;2024-02-15T10:09:48;2.20;;;1.85;;
78732;SDS011;68056;52.530;5.454;2024-02-15T10:12:13;3.00;;;2.30;;
78732;SDS011;68056;52.530;5.454;2024-02-15T10:14:44;2.70;;;1.95;;
78732;SDS011;68056;52.530;5.454;2024-02-15T10:17:16;3.50;;;2.50;;
78732;SDS011;68056;52.530;5.454;2024-02-15T10:19:44;3.53;;;2.55;;
78732;SDS011;68056;52.530;5.454;2024-02-15T10:22:11;5.55;;;2.83;;
78732;SDS011;68056;52.530;5.454;2024-02-15T10:24:39;4.05;;;2.78;;
78732;SDS011;68056;52.530;5.454;2024-02-15T10:27:06;6.65;;;3.10;;
78732;SDS011;68056;52.530;5.454;2024-02-15T10:29:32;5.20;;;3.95;;
78732;SDS011;68056;52.530;5.454;2024-02-15T10:32:01;5.22;;;3.80;;
78732;SDS011;68056;52.530;5.454;2024-02-15T10:34:28;5.75;;;3.72;;
78732;SDS011;68056;52.530;5.454;2024-02-15T10:37:13;8.13;;;4.25;;
78732;SDS011;68056;52.530;5.454;2024-02-15T10:39:41;8.27;;;4.32;;
78732;SDS011;68056;52.530;5.454;2024-02-15T10:42:07;9.38;;;4.85;;
78732;SDS011;68056;52.530;5.454;2024-02-15T10:44:36;6.05;;;3.78;;
78732;SDS011;68056;52.530;5.454;2024-02-15T10:47:05;6.93;;;4.03;;
78732;SDS011;68056;52.530;5.454;2024-02-15T10:49:32;9.05;;;4.38;;
78732;SDS011;68056;52.530;5.454;2024-02-15T10:52:01;10.15;;;4.57;;
78732;SDS011;68056;52.530;5.454;2024-02-15T10:57:11;9.32;;;4.70;;
78732;SDS011;68056;52.530;5.454;2024-02-15T10:59:41;7.57;;;4.50;;
78732;SDS011;68056;52.530;5.454;2024-02-15T11:02:39;7.35;;;4.40;;
78732;SDS011;68056;52.530;5.454;2024-02-15T11:05:11;5.70;;;4.80;;
78732;SDS011;68056;52.530;5.454;2024-02-15T11:07:39;8.23;;;4.40;;
78732;SDS011;68056;52.530;5.454;2024-02-15T11:10:08;10.85;;;6.13;;
78732;SDS011;68056;52.530;5.454;2024-02-15T11:12:35;8.32;;;4.47;;
78732;SDS011;68056;52.530;5.454;2024-02-15T11:15:02;6.43;;;4.00;;
78732;SDS011;68056;52.530;5.454;2024-02-15T11:20:05;5.60;;;3.92;;
78732;SDS011;68056;52.530;5.454;2024-02-15T11:22:36;7.20;;;4.20;;
78732;SDS011;68056;52.530;5.454;2024-02-15T11:25:03;6.22;;;4.43;;
78732;SDS011;68056;52.530;5.454;2024-02-15T11:27:36;6.53;;;4.63;;
78732;SDS011;68056;52.530;5.454;2024-02-15T11:30:07;7.80;;;4.82;;
78732;SDS011;68056;52.530;5.454;2024-02-15T11:35:12;10.23;;;4.50;;
78732;SDS011;68056;52.530;5.454;2024-02-15T11:42:44;4.90;;;4.13;;
78732;SDS011;68056;52.530;5.454;2024-02-15T11:45:14;8.68;;;4.63;;
78732;SDS011;68056;52.530;5.454;2024-02-15T11:47:43;7.65;;;5.22;;
78732;SDS011;68056;52.530;5.454;2024-02-15T11:50:16;6.72;;;4.47;;
78732;SDS011;68056;52.530;5.454;2024-02-15T11:52:46;5.97;;;4.25;;
78732;SDS011;68056;52.530;5.454;2024-02-15T11:55:14;10.38;;;5.43;;
78732;SDS011;68056;52.530;5.454;2024-02-15T11:57:44;8.60;;;4.28;;
78732;SDS011;68056;52.530;5.454;2024-02-15T12:00:30;8.45;;;4.40;;
78732;SDS011;68056;52.530;5.454;2024-02-15T12:03:16;10.30;;;5.38;;
78732;SDS011;68056;52.530;5.454;2024-02-15T12:06:01;7.40;;;4.47;;
78732;SDS011;68056;52.530;5.454;2024-02-15T12:08:46;8.27;;;5.30;;
78732;SDS011;68056;52.530;5.454;2024-02-15T12:11:32;7.13;;;4.32;;
78732;SDS011;68056;52.530;5.454;2024-02-15T12:14:16;8.60;;;5.07;;
78732;SDS011;68056;52.530;5.454;2024-02-15T12:17:05;9.10;;;4.93;;
78732;SDS011;68056;52.530;5.454;2024-02-15T12:22:25;8.02;;;5.13;;
78732;SDS011;68056;52.530;5.454;2024-02-15T12:24:57;5.93;;;4.28;;
78732;SDS011;68056;52.530;5.454;2024-02-15T12:27:25;7.32;;;4.35;;
78732;SDS011;68056;52.530;5.454;2024-02-15T12:29:58;6.78;;;3.97;;
78732;SDS011;68056;52.530;5.454;2024-02-15T12:32:27;6.95;;;4.22;;
78732;SDS011;68056;52.530;5.454;2024-02-15T12:34:53;6.72;;;5.30;;
78732;SDS011;68056;52.530;5.454;2024-02-15T12:37:35;7.07;;;4.53;;
78732;SDS011;68056;52.530;5.454;2024-02-15T12:40:09;9.05;;;4.68;;
78732;SDS011;68056;52.530;5.454;2024-02-15T12:42:40;10.50;;;4.63;;
78732;SDS011;68056;52.530;5.454;2024-02-15T12:45:07;7.68;;;4.90;;
78732;SDS011;68056;52.530;5.454;2024-02-15T12:47:39;7.68;;;4.20;;
78732;SDS011;68056;52.530;5.454;2024-02-15T12:50:16;7.13;;;5.43;;
78732;SDS011;68056;52.530;5.454;2024-02-15T12:52:45;9.25;;;5.13;;
78732;SDS011;68056;52.530;5.454;2024-02-15T12:55:19;7.25;;;3.97;;
78732;SDS011;68056;52.530;5.454;2024-02-15T13:00:19;6.78;;;4.63;;
78732;SDS011;68056;52.530;5.454;2024-02-15T13:02:49;8.68;;;4.80;;
78732;SDS011;68056;52.530;5.454;2024-02-15T13:05:19;12.15;;;5.00;;
78732;SDS011;68056;52.530;5.454;2024-02-15T13:07:46;8.60;;;4.97;;
78732;SDS011;68056;52.530;5.454;2024-02-15T13:10:12;8.90;;;4.85;;
78732;SDS011;68056;52.530;5.454;2024-02-15T13:12:39;9.82;;;5.40;;
78732;SDS011;68056;52.530;5.454;2024-02-15T13:15:06;8.90;;;4.57;;
78732;SDS011;68056;52.530;5.454;2024-02-15T13:17:36;11.25;;;5.43;;
78732;SDS011;68056;52.530;5.454;2024-02-15T13:20:03;8.52;;;5.05;;
78732;SDS011;68056;52.530;5.454;2024-02-15T13:22:36;8.15;;;5.28;;
78732;SDS011;68056;52.530;5.454;2024-02-15T13:25:03;7.65;;;5.03;;
78732;SDS011;68056;52.530;5.454;2024-02-15T13:27:32;8.10;;;5.07;;
78732;SDS011;68056;52.530;5.454;2024-02-15T13:29:58;8.32;;;5.50;;
78732;SDS011;68056;52.530;5.454;2024-02-15T13:32:23;7.95;;;4.57;;
78732;SDS011;68056;52.530;5.454;2024-02-15T13:34:49;8.68;;;5.07;;
78732;SDS011;68056;52.530;5.454;2024-02-15T13:37:21;8.38;;;5.00;;
78732;SDS011;68056;52.530;5.454;2024-02-15T13:42:14;6.93;;;5.38;;
78732;SDS011;68056;52.530;5.454;2024-02-15T13:44:39;8.95;;;5.55;;
78732;SDS011;68056;52.530;5.454;2024-02-15T13:47:05;8.43;;;5.00;;
78732;SDS011;68056;52.530;5.454;2024-02-15T13:49:30;6.55;;;5.25;;
78732;SDS011;68056;52.530;5.454;2024-02-15T13:51:57;7.35;;;5.47;;
78732;SDS011;68056;52.530;5.454;2024-02-15T13:54:28;7.75;;;4.95;;
78732;SDS011;68056;52.530;5.454;2024-02-15T13:56:54;9.75;;;5.35;;
78732;SDS011;68056;52.530;5.454;2024-02-15T13:59:22;8.80;;;5.38;;
78732;SDS011;68056;52.530;5.454;2024-02-15T14:01:51;6.22;;;5.22;;
78732;SDS011;68056;52.530;5.454;2024-02-15T14:06:44;6.43;;;4.70;;
78732;SDS011;68056;52.530;5.454;2024-02-15T14:09:12;7.72;;;4.82;;
78732;SDS011;68056;52.530;5.454;2024-02-15T14:11:38;8.70;;;4.22;;
78732;SDS011;68056;52.530;5.454;2024-02-15T14:14:05;4.82;;;4.03;;
78732;SDS011;68056;52.530;5.454;2024-02-15T14:16:31;6.65;;;3.88;;
78732;SDS011;68056;52.530;5.454;2024-02-15T14:18:56;5.03;;;3.97;;
78732;SDS011;68056;52.530;5.454;2024-02-15T14:21:22;5.88;;;4.15;;
78732;SDS011;68056;52.530;5.454;2024-02-15T14:23:48;7.45;;;4.40;;
78732;SDS011;68056;52.530;5.454;2024-02-15T14:26:14;5.45;;;4.05;;
78732;SDS011;68056;52.530;5.454;2024-02-15T14:31:10;6.70;;;3.90;;
78732;SDS011;68056;52.530;5.454;2024-02-15T14:33:54;4.25;;;3.42;;
78732;SDS011;68056;52.530;5.454;2024-02-15T14:36:20;5.68;;;3.75;;
78732;SDS011;68056;52.530;5.454;2024-02-15T14:38:46;4.57;;;3.10;;
78732;SDS011;68056;52.530;5.454;2024-02-15T14:41:14;5.30;;;3.17;;
78732;SDS011;68056;52.530;5.454;2024-02-15T14:43:41;4.28;;;3.08;;
78732;SDS011;68056;52.530;5.454;2024-02-15T14:46:06;3.13;;;2.83;;
78732;SDS011;68056;52.530;5.454;2024-02-15T14:48:33;5.28;;;3.22;;
78732;SDS011;68056;52.530;5.454;2024-02-15T14:50:59;5.07;;;3.33;;
78732;SDS011;68056;52.530;5.454;2024-02-15T14:53:25;5.15;;;3.28;;
78732;SDS011;68056;52.530;5.454;2024-02-15T14:55:52;5.65;;;3.15;;
78732;SDS011;68056;52.530;5.454;2024-02-15T14:58:18;5.05;;;2.50;;
78732;SDS011;68056;52.530;5.454;2024-02-15T15:00:45;4.05;;;2.80;;
78732;SDS011;68056;52.530;5.454;2024-02-15T15:03:11;5.05;;;3.20;;
78732;SDS011;68056;52.530;5.454;2024-02-15T15:05:38;5.80;;;3.20;;
78732;SDS011;68056;52.530;5.454;2024-02-15T15:08:22;3.90;;;2.63;;
78732;SDS011;68056;52.530;5.454;2024-02-15T15:11:07;4.68;;;2.40;;
78732;SDS011;68056;52.530;5.454;2024-02-15T15:13:51;3.80;;;2.13;;
78732;SDS011;68056;52.530;5.454;2024-02-15T15:16:17;2.97;;;2.08;;
78732;SDS011;68056;52.530;5.454;2024-02-15T15:18:46;7.35;;;2.72;;
78732;SDS011;68056;52.530;5.454;2024-02-15T15:21:12;6.20;;;2.20;;
78732;SDS011;68056;52.530;5.454;2024-02-15T15:23:38;4.07;;;1.92;;
78732;SDS011;68056;52.530;5.454;2024-02-15T15:26:04;4.97;;;2.58;;